sensor_id;sensor_type;location;lat;lon;timestamp;P1;durP1;ratioP1;P2;durP2;ratioP2
56419;SDS011;42323;52.170;7.538;2022-11-11T00:01:02;5.30;;;2.70;;
56419;SDS011;42323;52.170;7.538;2022-11-11T00:03:30;4.78;;;2.05;;
56419;SDS011;42323;52.170;7.538;2022-11-11T00:06:02;7.00;;;2.30;;
56419;SDS011;42323;52.170;7.538;2022-11-11T00:08:30;9.48;;;3.10;;
56419;SDS011;42323;52.170;7.538;2022-11-11T00:11:04;3.10;;;2.17;;
56419;SDS011;42323;52.170;7.538;2022-11-11T00:13:33;4.93;;;2.47;;
56419;SDS011;42323;52.170;7.538;2022-11-11T00:16:13;4.00;;;2.35;;
56419;SDS011;42323;52.170;7.538;2022-11-11T00:18:45;7.13;;;2.97;;
56419;SDS011;42323;52.170;7.538;2022-11-11T00:21:31;9.32;;;2.63;;
56419;SDS011;42323;52.170;7.538;2022-11-11T00:24:04;4.32;;;2.58;;
56419;SDS011;42323;52.170;7.538;2022-11-11T00:26:54;6.72;;;3.17;;
56419;SDS011;42323;52.170;7.538;2022-11-11T00:29:21;5.05;;;2.90;;
56419;SDS011;42323;52.170;7.538;2022-11-11T00:31:47;5.55;;;2.75;;
56419;SDS011;42323;52.170;7.538;2022-11-11T00:34:33;6.15;;;2.60;;
56419;SDS011;42323;52.170;7.538;2022-11-11T00:37:00;8.73;;;2.55;;
56419;SDS011;42323;52.170;7.538;2022-11-11T00:39:27;5.95;;;2.58;;
56419;SDS011;42323;52.170;7.538;2022-11-11T00:41:54;4.18;;;2.72;;
56419;SDS011;42323;52.170;7.538;2022-11-11T00:44:20;7.20;;;2.90;;
56419;SDS011;42323;52.170;7.538;2022-11-11T00:46:47;5.15;;;2.40;;
56419;SDS011;42323;52.170;7.538;2022-11-11T00:49:35;4.63;;;2.20;;
56419;SDS011;42323;52.170;7.538;2022-11-11T00:52:20;4.32;;;2.58;;
56419;SDS011;42323;52.170;7.538;2022-11-11T00:54:47;3.45;;;2.40;;
56419;SDS011;42323;52.170;7.538;2022-11-11T00:57:14;5.28;;;2.70;;
56419;SDS011;42323;52.170;7.538;2022-11-11T00:59:40;3.88;;;2.45;;
56419;SDS011;42323;52.170;7.538;2022-11-11T01:02:07;3.78;;;2.15;;
56419;SDS011;42323;52.170;7.538;2022-11-11T01:04:34;10.82;;;2.75;;
56419;SDS011;42323;52.170;7.538;2022-11-11T01:07:01;4.35;;;2.55;;
56419;SDS011;42323;52.170;7.538;2022-11-11T01:09:28;5.72;;;2.45;;
56419;SDS011;42323;52.170;7.538;2022-11-11T01:11:55;5.88;;;2.40;;
56419;SDS011;42323;52.170;7.538;2022-11-11T01:14:22;7.47;;;2.58;;
56419;SDS011;42323;52.170;7.538;2022-11-11T01:16:48;6.68;;;2.70;;
56419;SDS011;42323;52.170;7.538;2022-11-11T01:19:15;8.65;;;2.80;;
56419;SDS011;42323;52.170;7.538;2022-11-11T01:21:42;3.35;;;2.50;;
56419;SDS011;42323;52.170;7.538;2022-11-11T01:24:09;3.70;;;2.60;;
56419;SDS011;42323;52.170;7.538;2022-11-11T01:26:36;4.88;;;2.17;;
56419;SDS011;42323;52.170;7.538;2022-11-11T01:29:02;6.20;;;3.00;;
56419;SDS011;42323;52.170;7.538;2022-11-11T01:31:29;6.00;;;2.90;;
56419;SDS011;42323;52.170;7.538;2022-11-11T01:33:56;6.75;;;2.78;;
56419;SDS011;42323;52.170;7.538;2022-11-11T01:36:24;3.58;;;2.00;;
56419;SDS011;42323;52.170;7.538;2022-11-11T01:38:53;6.47;;;2.85;;
56419;SDS011;42323;52.170;7.538;2022-11-11T01:41:22;5.63;;;2.40;;
56419;SDS011;42323;52.170;7.538;2022-11-11T01:46:30;5.00;;;2.53;;
56419;SDS011;42323;52.170;7.538;2022-11-11T01:49:04;4.00;;;2.13;;
56419;SDS011;42323;52.170;7.538;2022-11-11T01:54:43;4.88;;;2.42;;
56419;SDS011;42323;52.170;7.538;2022-11-11T02:00:07;5.95;;;2.13;;
56419;SDS011;42323;52.170;7.538;2022-11-11T02:02:38;8.00;;;2.63;;
56419;SDS011;42323;52.170;7.538;2022-11-11T02:05:10;6.38;;;2.65;;
56419;SDS011;42323;52.170;7.538;2022-11-11T02:07:58;6.18;;;2.92;;
56419;SDS011;42323;52.170;7.538;2022-11-11T02:10:29;7.47;;;2.95;;
56419;SDS011;42323;52.170;7.538;2022-11-11T02:12:58;3.85;;;2.50;;
56419;SDS011;42323;52.170;7.538;2022-11-11T02:15:44;6.63;;;2.50;;
56419;SDS011;42323;52.170;7.538;2022-11-11T02:18:11;6.10;;;2.33;;
56419;SDS011;42323;52.170;7.538;2022-11-11T02:20:39;7.45;;;2.72;;
56419;SDS011;42323;52.170;7.538;2022-11-11T02:23:14;5.60;;;2.45;;
56419;SDS011;42323;52.170;7.538;2022-11-11T02:25:50;4.28;;;2.42;;
56419;SDS011;42323;52.170;7.538;2022-11-11T02:28:19;4.10;;;2.05;;
56419;SDS011;42323;52.170;7.538;2022-11-11T02:30:47;6.10;;;2.47;;
56419;SDS011;42323;52.170;7.538;2022-11-11T02:33:14;4.78;;;2.40;;
56419;SDS011;42323;52.170;7.538;2022-11-11T02:35:43;10.13;;;3.30;;
56419;SDS011;42323;52.170;7.538;2022-11-11T02:38:12;3.58;;;2.42;;
56419;SDS011;42323;52.170;7.538;2022-11-11T02:40:40;4.40;;;2.13;;
56419;SDS011;42323;52.170;7.538;2022-11-11T02:43:30;4.95;;;2.70;;
56419;SDS011;42323;52.170;7.538;2022-11-11T02:45:59;7.68;;;2.58;;
56419;SDS011;42323;52.170;7.538;2022-11-11T02:48:28;5.20;;;2.70;;
56419;SDS011;42323;52.170;7.538;2022-11-11T02:50:55;5.72;;;3.03;;
56419;SDS011;42323;52.170;7.538;2022-11-11T02:53:22;7.53;;;3.00;;
56419;SDS011;42323;52.170;7.538;2022-11-11T02:55:49;8.98;;;3.17;;
56419;SDS011;42323;52.170;7.538;2022-11-11T02:58:16;5.45;;;3.05;;
56419;SDS011;42323;52.170;7.538;2022-11-11T03:00:43;6.55;;;2.30;;
56419;SDS011;42323;52.170;7.538;2022-11-11T03:03:10;5.13;;;2.55;;
56419;SDS011;42323;52.170;7.538;2022-11-11T03:05:37;7.43;;;2.70;;
56419;SDS011;42323;52.170;7.538;2022-11-11T03:08:05;3.38;;;2.50;;
56419;SDS011;42323;52.170;7.538;2022-11-11T03:10:32;6.47;;;2.65;;
56419;SDS011;42323;52.170;7.538;2022-11-11T03:12:58;6.38;;;2.63;;
56419;SDS011;42323;52.170;7.538;2022-11-11T03:15:25;8.55;;;3.35;;
56419;SDS011;42323;52.170;7.538;2022-11-11T03:17:52;3.88;;;2.60;;
56419;SDS011;42323;52.170;7.538;2022-11-11T03:20:19;6.50;;;2.70;;
56419;SDS011;42323;52.170;7.538;2022-11-11T03:25:36;5.30;;;2.70;;
56419;SDS011;42323;52.170;7.538;2022-11-11T03:28:06;4.30;;;2.83;;
56419;SDS011;42323;52.170;7.538;2022-11-11T03:30:41;6.57;;;2.88;;
56419;SDS011;42323;52.170;7.538;2022-11-11T03:33:10;3.35;;;2.58;;
56419;SDS011;42323;52.170;7.538;2022-11-11T03:35:37;6.55;;;2.80;;
56419;SDS011;42323;52.170;7.538;2022-11-11T03:38:06;7.50;;;2.90;;
56419;SDS011;42323;52.170;7.538;2022-11-11T03:40:45;7.22;;;3.33;;
56419;SDS011;42323;52.170;7.538;2022-11-11T03:43:16;5.28;;;3.00;;
56419;SDS011;42323;52.170;7.538;2022-11-11T03:45:45;6.63;;;3.25;;
56419;SDS011;42323;52.170;7.538;2022-11-11T03:48:13;5.68;;;3.00;;
56419;SDS011;42323;52.170;7.538;2022-11-11T03:50:41;6.85;;;3.38;;
56419;SDS011;42323;52.170;7.538;2022-11-11T03:53:13;7.43;;;3.53;;
56419;SDS011;42323;52.170;7.538;2022-11-11T03:55:44;6.35;;;3.35;;
56419;SDS011;42323;52.170;7.538;2022-11-11T03:58:15;4.88;;;3.03;;
56419;SDS011;42323;52.170;7.538;2022-11-11T04:00:58;5.40;;;3.08;;
56419;SDS011;42323;52.170;7.538;2022-11-11T04:03:26;4.80;;;3.22;;
56419;SDS011;42323;52.170;7.538;2022-11-11T04:06:24;4.28;;;2.92;;
56419;SDS011;42323;52.170;7.538;2022-11-11T04:09:12;4.93;;;3.00;;
56419;SDS011;42323;52.170;7.538;2022-11-11T04:12:00;4.73;;;3.10;;
56419;SDS011;42323;52.170;7.538;2022-11-11T04:14:28;4.80;;;3.08;;
56419;SDS011;42323;52.170;7.538;2022-11-11T04:17:16;6.32;;;2.85;;
56419;SDS011;42323;52.170;7.538;2022-11-11T04:19:46;5.63;;;3.15;;
56419;SDS011;42323;52.170;7.538;2022-11-11T04:22:43;5.80;;;3.20;;
56419;SDS011;42323;52.170;7.538;2022-11-11T04:25:16;4.78;;;3.72;;
56419;SDS011;42323;52.170;7.538;2022-11-11T04:28:06;11.35;;;3.50;;
56419;SDS011;42323;52.170;7.538;2022-11-11T04:30:52;6.13;;;3.42;;
56419;SDS011;42323;52.170;7.538;2022-11-11T04:33:19;6.05;;;3.58;;
56419;SDS011;42323;52.170;7.538;2022-11-11T04:35:56;4.93;;;3.10;;
56419;SDS011;42323;52.170;7.538;2022-11-11T04:38:33;5.60;;;3.35;;
56419;SDS011;42323;52.170;7.538;2022-11-11T04:41:19;6.63;;;3.58;;
56419;SDS011;42323;52.170;7.538;2022-11-11T04:44:17;9.60;;;3.58;;
56419;SDS011;42323;52.170;7.538;2022-11-11T04:50:27;5.07;;;3.33;;
56419;SDS011;42323;52.170;7.538;2022-11-11T04:53:12;5.50;;;3.30;;
56419;SDS011;42323;52.170;7.538;2022-11-11T04:55:41;6.15;;;3.40;;
56419;SDS011;42323;52.170;7.538;2022-11-11T04:58:32;7.18;;;3.65;;
56419;SDS011;42323;52.170;7.538;2022-11-11T05:01:06;8.38;;;4.03;;
56419;SDS011;42323;52.170;7.538;2022-11-11T05:03:40;8.13;;;3.53;;
56419;SDS011;42323;52.170;7.538;2022-11-11T05:06:15;6.97;;;3.83;;
56419;SDS011;42323;52.170;7.538;2022-11-11T05:09:07;7.55;;;3.75;;
56419;SDS011;42323;52.170;7.538;2022-11-11T05:11:41;7.28;;;4.18;;
56419;SDS011;42323;52.170;7.538;2022-11-11T05:14:08;5.47;;;3.47;;
56419;SDS011;42323;52.170;7.538;2022-11-11T05:16:55;8.63;;;4.22;;
56419;SDS011;42323;52.170;7.538;2022-11-11T05:19:42;10.07;;;4.07;;
56419;SDS011;42323;52.170;7.538;2022-11-11T05:22:37;6.53;;;3.38;;
56419;SDS011;42323;52.170;7.538;2022-11-11T05:25:06;6.43;;;3.70;;
56419;SDS011;42323;52.170;7.538;2022-11-11T05:28:03;6.75;;;3.65;;
56419;SDS011;42323;52.170;7.538;2022-11-11T05:30:31;10.07;;;4.03;;
56419;SDS011;42323;52.170;7.538;2022-11-11T05:33:01;7.38;;;4.03;;
56419;SDS011;42323;52.170;7.538;2022-11-11T05:35:31;11.63;;;4.03;;
56419;SDS011;42323;52.170;7.538;2022-11-11T05:38:07;8.20;;;4.47;;
56419;SDS011;42323;52.170;7.538;2022-11-11T05:40:55;8.23;;;3.95;;
56419;SDS011;42323;52.170;7.538;2022-11-11T05:43:23;10.75;;;4.38;;
56419;SDS011;42323;52.170;7.538;2022-11-11T05:45:50;7.82;;;3.42;;
56419;SDS011;42323;52.170;7.538;2022-11-11T05:48:18;7.68;;;4.10;;
56419;SDS011;42323;52.170;7.538;2022-11-11T05:50:46;7.78;;;3.67;;
56419;SDS011;42323;52.170;7.538;2022-11-11T05:53:16;8.05;;;3.92;;
56419;SDS011;42323;52.170;7.538;2022-11-11T05:55:50;8.00;;;4.32;;
56419;SDS011;42323;52.170;7.538;2022-11-11T05:58:20;15.32;;;4.03;;
56419;SDS011;42323;52.170;7.538;2022-11-11T06:00:47;7.78;;;4.10;;
56419;SDS011;42323;52.170;7.538;2022-11-11T06:03:14;9.35;;;4.03;;
56419;SDS011;42323;52.170;7.538;2022-11-11T06:05:41;7.85;;;4.05;;
56419;SDS011;42323;52.170;7.538;2022-11-11T06:08:07;10.20;;;3.55;;
56419;SDS011;42323;52.170;7.538;2022-11-11T06:10:34;5.35;;;3.50;;
56419;SDS011;42323;52.170;7.538;2022-11-11T06:13:01;7.22;;;3.97;;
56419;SDS011;42323;52.170;7.538;2022-11-11T06:15:30;8.98;;;3.65;;
56419;SDS011;42323;52.170;7.538;2022-11-11T06:17:58;6.03;;;3.85;;
56419;SDS011;42323;52.170;7.538;2022-11-11T06:20:25;8.63;;;3.38;;
56419;SDS011;42323;52.170;7.538;2022-11-11T06:22:52;6.97;;;3.55;;
56419;SDS011;42323;52.170;7.538;2022-11-11T06:25:26;6.10;;;3.60;;
56419;SDS011;42323;52.170;7.538;2022-11-11T06:28:13;10.13;;;4.03;;
56419;SDS011;42323;52.170;7.538;2022-11-11T06:30:41;12.07;;;4.10;;
56419;SDS011;42323;52.170;7.538;2022-11-11T06:33:16;7.68;;;3.72;;
56419;SDS011;42323;52.170;7.538;2022-11-11T06:35:43;8.18;;;3.83;;
56419;SDS011;42323;52.170;7.538;2022-11-11T06:38:10;7.28;;;3.72;;
56419;SDS011;42323;52.170;7.538;2022-11-11T06:40:37;5.18;;;3.45;;
56419;SDS011;42323;52.170;7.538;2022-11-11T06:43:04;6.75;;;3.55;;
56419;SDS011;42323;52.170;7.538;2022-11-11T06:45:31;7.28;;;3.67;;
56419;SDS011;42323;52.170;7.538;2022-11-11T06:47:59;7.82;;;4.15;;
56419;SDS011;42323;52.170;7.538;2022-11-11T06:50:26;6.82;;;3.95;;
56419;SDS011;42323;52.170;7.538;2022-11-11T06:52:54;6.82;;;3.83;;
56419;SDS011;42323;52.170;7.538;2022-11-11T06:55:21;10.70;;;3.72;;
56419;SDS011;42323;52.170;7.538;2022-11-11T06:57:48;5.57;;;3.63;;
56419;SDS011;42323;52.170;7.538;2022-11-11T07:00:15;6.00;;;3.67;;
56419;SDS011;42323;52.170;7.538;2022-11-11T07:02:42;6.60;;;3.20;;
56419;SDS011;42323;52.170;7.538;2022-11-11T07:05:09;10.65;;;4.35;;
56419;SDS011;42323;52.170;7.538;2022-11-11T07:07:36;8.15;;;3.85;;
56419;SDS011;42323;52.170;7.538;2022-11-11T07:10:03;12.43;;;4.18;;
56419;SDS011;42323;52.170;7.538;2022-11-11T07:12:32;9.52;;;3.97;;
56419;SDS011;42323;52.170;7.538;2022-11-11T07:14:59;6.43;;;3.35;;
56419;SDS011;42323;52.170;7.538;2022-11-11T07:17:26;5.75;;;3.28;;
56419;SDS011;42323;52.170;7.538;2022-11-11T07:19:52;6.97;;;3.80;;
56419;SDS011;42323;52.170;7.538;2022-11-11T07:22:19;6.32;;;3.70;;
56419;SDS011;42323;52.170;7.538;2022-11-11T07:24:46;4.60;;;3.22;;
56419;SDS011;42323;52.170;7.538;2022-11-11T07:27:13;9.80;;;3.97;;
56419;SDS011;42323;52.170;7.538;2022-11-11T07:29:39;7.93;;;3.75;;
56419;SDS011;42323;52.170;7.538;2022-11-11T07:32:06;6.45;;;3.92;;
56419;SDS011;42323;52.170;7.538;2022-11-11T07:34:33;9.13;;;3.92;;
56419;SDS011;42323;52.170;7.538;2022-11-11T07:37:00;5.70;;;3.38;;
56419;SDS011;42323;52.170;7.538;2022-11-11T07:39:26;5.85;;;3.00;;
56419;SDS011;42323;52.170;7.538;2022-11-11T07:41:53;8.27;;;3.60;;
56419;SDS011;42323;52.170;7.538;2022-11-11T07:44:20;5.93;;;3.78;;
56419;SDS011;42323;52.170;7.538;2022-11-11T07:46:47;4.47;;;3.40;;
56419;SDS011;42323;52.170;7.538;2022-11-11T07:49:13;10.70;;;3.40;;
56419;SDS011;42323;52.170;7.538;2022-11-11T07:51:40;6.82;;;3.55;;
56419;SDS011;42323;52.170;7.538;2022-11-11T07:54:07;5.40;;;3.58;;
56419;SDS011;42323;52.170;7.538;2022-11-11T07:56:34;8.63;;;3.97;;
56419;SDS011;42323;52.170;7.538;2022-11-11T07:59:01;6.53;;;4.57;;
56419;SDS011;42323;52.170;7.538;2022-11-11T08:01:27;7.93;;;4.22;;
56419;SDS011;42323;52.170;7.538;2022-11-11T08:03:54;6.97;;;4.47;;
56419;SDS011;42323;52.170;7.538;2022-11-11T08:06:21;12.30;;;4.45;;
56419;SDS011;42323;52.170;7.538;2022-11-11T08:08:48;8.40;;;4.10;;
56419;SDS011;42323;52.170;7.538;2022-11-11T08:11:16;8.23;;;4.35;;
56419;SDS011;42323;52.170;7.538;2022-11-11T08:13:43;9.13;;;3.85;;
56419;SDS011;42323;52.170;7.538;2022-11-11T08:16:10;7.38;;;4.00;;
56419;SDS011;42323;52.170;7.538;2022-11-11T08:18:38;8.10;;;4.03;;
56419;SDS011;42323;52.170;7.538;2022-11-11T08:21:04;9.55;;;3.92;;
56419;SDS011;42323;52.170;7.538;2022-11-11T08:23:34;5.82;;;3.38;;
56419;SDS011;42323;52.170;7.538;2022-11-11T08:26:21;7.55;;;3.45;;
56419;SDS011;42323;52.170;7.538;2022-11-11T08:28:55;6.82;;;3.70;;
56419;SDS011;42323;52.170;7.538;2022-11-11T08:31:22;7.65;;;3.90;;
56419;SDS011;42323;52.170;7.538;2022-11-11T08:33:49;7.93;;;4.20;;
56419;SDS011;42323;52.170;7.538;2022-11-11T08:36:16;8.80;;;3.53;;
56419;SDS011;42323;52.170;7.538;2022-11-11T08:38:46;5.55;;;3.38;;
56419;SDS011;42323;52.170;7.538;2022-11-11T08:41:13;6.88;;;3.15;;
56419;SDS011;42323;52.170;7.538;2022-11-11T08:43:40;6.70;;;3.13;;
56419;SDS011;42323;52.170;7.538;2022-11-11T08:46:07;6.60;;;3.28;;
56419;SDS011;42323;52.170;7.538;2022-11-11T08:48:35;6.45;;;3.13;;
56419;SDS011;42323;52.170;7.538;2022-11-11T08:51:01;5.50;;;2.95;;
56419;SDS011;42323;52.170;7.538;2022-11-11T08:53:28;5.85;;;3.15;;
56419;SDS011;42323;52.170;7.538;2022-11-11T08:55:55;6.72;;;3.38;;
56419;SDS011;42323;52.170;7.538;2022-11-11T08:58:22;5.53;;;3.13;;
56419;SDS011;42323;52.170;7.538;2022-11-11T09:00:49;5.63;;;3.25;;
56419;SDS011;42323;52.170;7.538;2022-11-11T09:03:16;5.20;;;2.95;;
56419;SDS011;42323;52.170;7.538;2022-11-11T09:05:42;4.90;;;2.90;;
56419;SDS011;42323;52.170;7.538;2022-11-11T09:08:13;8.15;;;3.05;;
56419;SDS011;42323;52.170;7.538;2022-11-11T09:10:39;5.65;;;3.05;;
56419;SDS011;42323;52.170;7.538;2022-11-11T09:13:06;5.03;;;2.90;;
56419;SDS011;42323;52.170;7.538;2022-11-11T09:15:33;7.10;;;2.78;;
56419;SDS011;42323;52.170;7.538;2022-11-11T09:18:00;5.90;;;2.40;;
56419;SDS011;42323;52.170;7.538;2022-11-11T09:20:27;5.55;;;2.72;;
56419;SDS011;42323;52.170;7.538;2022-11-11T09:22:54;5.30;;;2.53;;
56419;SDS011;42323;52.170;7.538;2022-11-11T09:25:21;7.57;;;2.80;;
56419;SDS011;42323;52.170;7.538;2022-11-11T09:27:55;6.50;;;2.70;;
56419;SDS011;42323;52.170;7.538;2022-11-11T09:30:24;4.13;;;2.60;;
56419;SDS011;42323;52.170;7.538;2022-11-11T09:32:52;5.63;;;2.80;;
56419;SDS011;42323;52.170;7.538;2022-11-11T09:35:19;5.55;;;2.60;;
56419;SDS011;42323;52.170;7.538;2022-11-11T09:37:55;5.90;;;2.88;;
56419;SDS011;42323;52.170;7.538;2022-11-11T09:40:25;5.22;;;2.50;;
56419;SDS011;42323;52.170;7.538;2022-11-11T09:43:55;3.45;;;2.38;;
56419;SDS011;42323;52.170;7.538;2022-11-11T09:46:04;5.28;;;2.53;;
56419;SDS011;42323;52.170;7.538;2022-11-11T09:48:55;3.42;;;2.55;;
56419;SDS011;42323;52.170;7.538;2022-11-11T09:51:31;6.00;;;2.63;;
56419;SDS011;42323;52.170;7.538;2022-11-11T09:54:25;4.40;;;2.63;;
56419;SDS011;42323;52.170;7.538;2022-11-11T09:57:00;7.20;;;2.53;;
56419;SDS011;42323;52.170;7.538;2022-11-11T09:59:42;3.88;;;2.10;;
56419;SDS011;42323;52.170;7.538;2022-11-11T10:02:18;3.88;;;2.33;;
56419;SDS011;42323;52.170;7.538;2022-11-11T10:04:56;2.70;;;2.20;;
56419;SDS011;42323;52.170;7.538;2022-11-11T10:07:34;3.42;;;2.35;;
56419;SDS011;42323;52.170;7.538;2022-11-11T10:10:20;4.18;;;2.30;;
56419;SDS011;42323;52.170;7.538;2022-11-11T10:13:11;4.25;;;2.30;;
56419;SDS011;42323;52.170;7.538;2022-11-11T10:15:52;6.35;;;2.50;;
56419;SDS011;42323;52.170;7.538;2022-11-11T10:18:24;5.03;;;2.33;;
56419;SDS011;42323;52.170;7.538;2022-11-11T10:21:18;4.40;;;2.67;;
56419;SDS011;42323;52.170;7.538;2022-11-11T10:23:53;4.35;;;2.20;;
56419;SDS011;42323;52.170;7.538;2022-11-11T10:26:26;6.97;;;2.40;;
56419;SDS011;42323;52.170;7.538;2022-11-11T10:28:55;5.88;;;2.55;;
56419;SDS011;42323;52.170;7.538;2022-11-11T10:31:25;5.03;;;2.60;;
56419;SDS011;42323;52.170;7.538;2022-11-11T10:34:11;4.43;;;2.58;;
56419;SDS011;42323;52.170;7.538;2022-11-11T10:36:44;5.65;;;2.33;;
56419;SDS011;42323;52.170;7.538;2022-11-11T10:39:17;7.18;;;2.50;;
56419;SDS011;42323;52.170;7.538;2022-11-11T10:41:50;5.25;;;2.40;;
56419;SDS011;42323;52.170;7.538;2022-11-11T10:44:27;4.28;;;2.47;;
56419;SDS011;42323;52.170;7.538;2022-11-11T10:49:34;5.53;;;2.67;;
56419;SDS011;42323;52.170;7.538;2022-11-11T10:52:18;4.45;;;2.60;;
56419;SDS011;42323;52.170;7.538;2022-11-11T11:00:06;4.65;;;2.72;;
56419;SDS011;42323;52.170;7.538;2022-11-11T11:02:43;6.10;;;3.28;;
56419;SDS011;42323;52.170;7.538;2022-11-11T11:05:18;7.35;;;4.40;;
56419;SDS011;42323;52.170;7.538;2022-11-11T11:07:55;7.30;;;3.97;;
56419;SDS011;42323;52.170;7.538;2022-11-11T11:10:36;7.10;;;4.45;;
56419;SDS011;42323;52.170;7.538;2022-11-11T11:16:16;7.65;;;3.85;;
56419;SDS011;42323;52.170;7.538;2022-11-11T11:21:56;6.10;;;3.37;;
56419;SDS011;42323;52.170;7.538;2022-11-11T11:24:25;5.63;;;3.08;;
56419;SDS011;42323;52.170;7.538;2022-11-11T11:26:55;7.45;;;3.50;;
56419;SDS011;42323;52.170;7.538;2022-11-11T11:29:44;6.05;;;2.72;;
56419;SDS011;42323;52.170;7.538;2022-11-11T11:32:18;5.13;;;3.10;;
56419;SDS011;42323;52.170;7.538;2022-11-11T11:34:48;7.32;;;3.10;;
56419;SDS011;42323;52.170;7.538;2022-11-11T11:37:20;4.63;;;3.17;;
56419;SDS011;42323;52.170;7.538;2022-11-11T11:39:57;5.30;;;3.15;;
56419;SDS011;42323;52.170;7.538;2022-11-11T11:42:30;8.93;;;3.53;;
56419;SDS011;42323;52.170;7.538;2022-11-11T11:45:13;6.65;;;3.22;;
56419;SDS011;42323;52.170;7.538;2022-11-11T11:50:41;6.65;;;2.70;;
56419;SDS011;42323;52.170;7.538;2022-11-11T11:56:08;4.72;;;2.72;;
56419;SDS011;42323;52.170;7.538;2022-11-11T12:01:47;6.35;;;3.00;;
56419;SDS011;42323;52.170;7.538;2022-11-11T12:15:50;4.55;;;3.00;;
56419;SDS011;42323;52.170;7.538;2022-11-11T12:18:38;5.57;;;2.60;;
56419;SDS011;42323;52.170;7.538;2022-11-11T12:21:16;7.00;;;2.63;;
56419;SDS011;42323;52.170;7.538;2022-11-11T12:29:19;3.95;;;2.15;;
56419;SDS011;42323;52.170;7.538;2022-11-11T12:40:34;2.90;;;2.08;;
56419;SDS011;42323;52.170;7.538;2022-11-11T12:45:59;2.97;;;1.70;;
56419;SDS011;42323;52.170;7.538;2022-11-11T12:52:18;5.03;;;2.47;;
56419;SDS011;42323;52.170;7.538;2022-11-11T12:57:27;2.53;;;1.90;;
56419;SDS011;42323;52.170;7.538;2022-11-11T13:05:48;8.07;;;1.95;;
56419;SDS011;42323;52.170;7.538;2022-11-11T13:16:09;3.00;;;1.23;;
56419;SDS011;42323;52.170;7.538;2022-11-11T13:24:28;2.10;;;1.20;;
56419;SDS011;42323;52.170;7.538;2022-11-11T13:27:02;2.33;;;1.30;;
56419;SDS011;42323;52.170;7.538;2022-11-11T13:32:49;2.03;;;1.00;;
56419;SDS011;42323;52.170;7.538;2022-11-11T13:35:26;2.60;;;1.13;;
56419;SDS011;42323;52.170;7.538;2022-11-11T13:38:21;3.50;;;1.15;;
56419;SDS011;42323;52.170;7.538;2022-11-11T13:41:01;1.58;;;1.02;;
56419;SDS011;42323;52.170;7.538;2022-11-11T13:43:50;2.72;;;1.48;;
56419;SDS011;42323;52.170;7.538;2022-11-11T13:49:31;2.05;;;1.20;;
56419;SDS011;42323;52.170;7.538;2022-11-11T13:52:03;3.63;;;1.67;;
56419;SDS011;42323;52.170;7.538;2022-11-11T13:57:59;2.53;;;2.05;;
56419;SDS011;42323;52.170;7.538;2022-11-11T14:00:35;3.92;;;1.30;;
56419;SDS011;42323;52.170;7.538;2022-11-11T14:05:46;3.38;;;1.52;;
56419;SDS011;42323;52.170;7.538;2022-11-11T14:13:52;2.55;;;1.38;;
56419;SDS011;42323;52.170;7.538;2022-11-11T14:27:53;2.45;;;1.60;;
56419;SDS011;42323;52.170;7.538;2022-11-11T14:30:35;3.00;;;1.38;;
56419;SDS011;42323;52.170;7.538;2022-11-11T14:33:06;4.03;;;1.20;;
56419;SDS011;42323;52.170;7.538;2022-11-11T14:35:42;4.38;;;1.27;;
56419;SDS011;42323;52.170;7.538;2022-11-11T15:00:15;3.70;;;1.42;;
56419;SDS011;42323;52.170;7.538;2022-11-11T15:02:49;2.50;;;1.00;;
56419;SDS011;42323;52.170;7.538;2022-11-11T15:05:41;2.42;;;1.20;;
56419;SDS011;42323;52.170;7.538;2022-11-11T15:08:17;2.45;;;1.40;;
56419;SDS011;42323;52.170;7.538;2022-11-11T15:11:06;2.30;;;1.33;;
56419;SDS011;42323;52.170;7.538;2022-11-11T15:30:15;2.42;;;1.30;;
56419;SDS011;42323;52.170;7.538;2022-11-11T15:33:13;2.70;;;1.80;;
56419;SDS011;42323;52.170;7.538;2022-11-11T15:35:49;3.28;;;1.73;;
56419;SDS011;42323;52.170;7.538;2022-11-11T15:38:23;4.45;;;1.70;;
56419;SDS011;42323;52.170;7.538;2022-11-11T15:40:54;3.92;;;1.58;;
56419;SDS011;42323;52.170;7.538;2022-11-11T15:43:26;2.05;;;1.40;;
56419;SDS011;42323;52.170;7.538;2022-11-11T15:46:01;2.60;;;1.45;;
56419;SDS011;42323;52.170;7.538;2022-11-11T15:48:31;1.67;;;1.40;;
56419;SDS011;42323;52.170;7.538;2022-11-11T15:54:19;3.67;;;1.40;;
56419;SDS011;42323;52.170;7.538;2022-11-11T15:56:49;4.18;;;1.83;;
56419;SDS011;42323;52.170;7.538;2022-11-11T15:59:23;3.50;;;1.73;;
56419;SDS011;42323;52.170;7.538;2022-11-11T16:01:56;5.93;;;2.00;;
56419;SDS011;42323;52.170;7.538;2022-11-11T16:04:24;4.15;;;1.60;;
56419;SDS011;42323;52.170;7.538;2022-11-11T16:07:20;3.60;;;2.10;;
56419;SDS011;42323;52.170;7.538;2022-11-11T16:09:50;4.10;;;2.03;;
56419;SDS011;42323;52.170;7.538;2022-11-11T16:12:24;5.22;;;2.20;;
56419;SDS011;42323;52.170;7.538;2022-11-11T16:14:57;4.25;;;2.40;;
56419;SDS011;42323;52.170;7.538;2022-11-11T16:17:29;3.08;;;2.55;;
56419;SDS011;42323;52.170;7.538;2022-11-11T16:20:10;5.00;;;2.13;;
56419;SDS011;42323;52.170;7.538;2022-11-11T16:22:40;7.03;;;3.78;;
56419;SDS011;42323;52.170;7.538;2022-11-11T16:25:11;14.52;;;8.30;;
56419;SDS011;42323;52.170;7.538;2022-11-11T16:27:44;11.45;;;6.60;;
56419;SDS011;42323;52.170;7.538;2022-11-11T16:33:01;7.90;;;4.18;;
56419;SDS011;42323;52.170;7.538;2022-11-11T16:38:01;7.53;;;3.60;;
56419;SDS011;42323;52.170;7.538;2022-11-11T16:43:13;6.43;;;3.65;;
56419;SDS011;42323;52.170;7.538;2022-11-11T16:46:03;5.93;;;3.20;;
56419;SDS011;42323;52.170;7.538;2022-11-11T16:51:06;6.72;;;3.53;;
56419;SDS011;42323;52.170;7.538;2022-11-11T16:53:38;5.88;;;4.03;;
56419;SDS011;42323;52.170;7.538;2022-11-11T16:56:20;6.68;;;3.88;;
56419;SDS011;42323;52.170;7.538;2022-11-11T16:59:02;4.40;;;3.25;;
56419;SDS011;42323;52.170;7.538;2022-11-11T17:01:43;5.00;;;3.35;;
56419;SDS011;42323;52.170;7.538;2022-11-11T17:04:11;8.52;;;3.90;;
56419;SDS011;42323;52.170;7.538;2022-11-11T17:06:46;7.07;;;4.45;;
56419;SDS011;42323;52.170;7.538;2022-11-11T17:09:59;8.60;;;5.15;;
56419;SDS011;42323;52.170;7.538;2022-11-11T17:12:07;8.38;;;4.75;;
56419;SDS011;42323;52.170;7.538;2022-11-11T17:14:35;8.20;;;4.72;;
56419;SDS011;42323;52.170;7.538;2022-11-11T17:17:07;5.53;;;4.15;;
56419;SDS011;42323;52.170;7.538;2022-11-11T17:19:35;6.75;;;4.07;;
56419;SDS011;42323;52.170;7.538;2022-11-11T17:22:06;6.18;;;3.58;;
56419;SDS011;42323;52.170;7.538;2022-11-11T17:24:34;8.18;;;3.45;;
56419;SDS011;42323;52.170;7.538;2022-11-11T17:27:02;6.45;;;4.20;;
56419;SDS011;42323;52.170;7.538;2022-11-11T17:29:29;7.40;;;4.70;;
56419;SDS011;42323;52.170;7.538;2022-11-11T17:32:03;8.38;;;5.38;;
56419;SDS011;42323;52.170;7.538;2022-11-11T17:34:30;11.68;;;6.93;;
56419;SDS011;42323;52.170;7.538;2022-11-11T17:36:57;13.35;;;7.80;;
56419;SDS011;42323;52.170;7.538;2022-11-11T17:39:24;11.80;;;8.20;;
56419;SDS011;42323;52.170;7.538;2022-11-11T17:41:51;14.63;;;9.20;;
56419;SDS011;42323;52.170;7.538;2022-11-11T17:44:18;13.40;;;8.30;;
56419;SDS011;42323;52.170;7.538;2022-11-11T17:46:44;12.43;;;8.18;;
56419;SDS011;42323;52.170;7.538;2022-11-11T17:49:11;11.38;;;7.60;;
56419;SDS011;42323;52.170;7.538;2022-11-11T17:51:42;13.45;;;7.03;;
56419;SDS011;42323;52.170;7.538;2022-11-11T17:54:08;9.82;;;6.47;;
56419;SDS011;42323;52.170;7.538;2022-11-11T17:56:35;13.73;;;6.25;;
56419;SDS011;42323;52.170;7.538;2022-11-11T17:59:04;10.38;;;6.20;;
56419;SDS011;42323;52.170;7.538;2022-11-11T18:01:33;10.50;;;6.30;;
56419;SDS011;42323;52.170;7.538;2022-11-11T18:04:01;9.05;;;6.43;;
56419;SDS011;42323;52.170;7.538;2022-11-11T18:06:30;9.60;;;5.53;;
56419;SDS011;42323;52.170;7.538;2022-11-11T18:08:58;7.40;;;4.97;;
56419;SDS011;42323;52.170;7.538;2022-11-11T18:11:25;7.97;;;5.15;;